Terminal Aerodrome Forecast
Issued by NWS

Home | Current Version | Previous Version | Text Only | Print | Product List | Glossary On
Versions: 1 2 3 4 5 6 7 8 9 10 11 12 13 14 15 16 17 18
000
FTUS42 KTBW 271700 RRA
TAFPGD
TAF
KPGD 271746Z 2718/2818 04010KT P6SM VCSH SCT020 OVC040
     FM272200 05010KT P6SM VCSH OVC025
     FM280200 04010KT P6SM VCSH SCT005 OVC015
     FM281400 05014KT P6SM VCSH SCT005 OVC015=

USA.gov is the U.S. government's official web portal to all federal, state and local government web resources and services.